Time;durP1;ratioP1;P1;durP2;ratioP2;P2;SDS_P1;SDS_P2;PMS_P1;PMS_P2;Temp;Humidity;BMP_temperature;BMP_pressure;BME280_temperature;BME280_humidity;BME280_pressure;Samples;Min_cycle;Max_cycle;Signal;HPM_P1;HPM_P2
2023/04/10 00:01:40;;;;;;;15.77;8.48;;;19.60;51.60;;;;;;5068536;28;20508;-73
2023/04/10 00:04:06;;;;;;;14.85;8.45;;;19.70;51.60;;;;;;5068441;28;20097;-73
2023/04/10 00:06:32;;;;;;;18.42;9.35;;;19.70;52.10;;;;;;5068372;28;20028;-74
2023/04/10 00:08:58;;;;;;;15.07;8.93;;;19.70;52.40;;;;;;5067988;28;20028;-74
2023/04/10 00:11:28;;;;;;;17.85;8.73;;;19.70;53.20;;;;;;5068283;28;20037;-76
2023/04/10 00:13:54;;;;;;;16.35;8.80;;;19.70;52.80;;;;;;5068223;28;20066;-74
2023/04/10 00:16:19;;;;;;;19.10;8.90;;;19.70;53.10;;;;;;5060775;28;20028;-74
2023/04/10 00:18:46;;;;;;;15.93;8.45;;;19.70;53.00;;;;;;5064473;28;20289;-72
2023/04/10 00:21:12;;;;;;;16.63;8.27;;;19.70;52.90;;;;;;5065568;28;20107;-74
2023/04/10 00:23:37;;;;;;;12.73;8.48;;;19.70;52.70;;;;;;5065335;28;20108;-73
2023/04/10 00:26:04;;;;;;;13.52;7.68;;;19.70;52.90;;;;;;5065008;28;20076;-74
2023/04/10 00:28:29;;;;;;;13.63;8.40;;;19.70;53.10;;;;;;5063909;28;20106;-75
2023/04/10 00:30:55;;;;;;;18.80;8.10;;;19.70;52.90;;;;;;5064203;28;20500;-73
2023/04/10 00:33:21;;;;;;;15.18;8.15;;;19.70;53.30;;;;;;5064600;28;20098;-76
2023/04/10 00:38:39;;;;;;;14.05;7.68;;;19.70;53.40;;;;;;5687308;23;20071;-71
2023/04/10 00:41:05;;;;;;;13.10;7.25;;;19.70;53.30;;;;;;4870236;29;20043;-72
2023/04/10 00:43:31;;;;;;;14.27;7.97;;;19.70;52.80;;;;;;4890518;29;20040;-72
2023/04/10 00:45:57;;;;;;;16.42;7.88;;;19.70;53.50;;;;;;4880090;29;20473;-72
2023/04/10 00:48:23;;;;;;;17.13;8.35;;;19.70;53.40;;;;;;4890689;29;20039;-72
2023/04/10 00:50:49;;;;;;;18.20;7.85;;;19.70;53.60;;;;;;4874845;29;20037;-71
2023/04/10 00:53:16;;;;;;;13.32;7.80;;;19.70;53.60;;;;;;4908540;23;20043;-75
2023/04/10 00:55:43;;;;;;;16.38;8.20;;;19.80;53.50;;;;;;4899021;29;20462;-75
2023/04/10 00:58:13;;;;;;;13.98;7.85;;;19.80;53.60;;;;;;4908685;29;20103;-75
2023/04/10 01:00:40;;;;;;;15.90;7.80;;;19.80;53.60;;;;;;4914947;29;20412;-75
2023/04/10 01:03:07;;;;;;;16.33;8.15;;;19.80;53.60;;;;;;4913440;29;20338;-76
2023/04/10 01:05:44;;;;;;;16.35;7.80;;;19.80;53.50;;;;;;4929979;29;20114;-75
2023/04/10 01:08:45;;;;;;;18.58;7.28;;;19.80;53.70;;;;;;4884012;29;20036;-75
2023/04/10 01:11:35;;;;;;;18.02;7.95;;;19.80;53.80;;;;;;4914073;29;20040;-75
2023/04/10 01:14:06;;;;;;;31.67;8.45;;;19.80;53.70;;;;;;4914174;29;20032;-75
2023/04/10 01:17:07;;;;;;;19.90;7.75;;;19.80;54.00;;;;;;4915555;29;20556;-74
2023/04/10 01:19:50;;;;;;;14.35;7.15;;;19.80;53.60;;;;;;4880283;29;20040;-75
2023/04/10 01:22:17;;;;;;;16.88;7.82;;;19.80;53.70;;;;;;4915976;29;20028;-74
2023/04/10 01:25:07;;;;;;;19.92;7.75;;;19.90;53.60;;;;;;4900280;29;20460;-74
2023/04/10 01:27:57;;;;;;;15.65;7.25;;;19.80;53.60;;;;;;4912183;29;20311;-74
2023/04/10 01:30:23;;;;;;;18.40;7.47;;;19.80;53.80;;;;;;4914412;29;20395;-74
2023/04/10 01:32:54;;;;;;;15.75;7.30;;;19.80;53.80;;;;;;4913665;29;20184;-73
2023/04/10 01:35:21;;;;;;;14.98;6.93;;;19.80;53.70;;;;;;4914163;29;20056;-73
2023/04/10 01:37:49;;;;;;;17.30;7.60;;;19.80;53.80;;;;;;4910208;29;20076;-74
2023/04/10 01:40:18;;;;;;;17.13;6.78;;;19.80;53.30;;;;;;4913901;29;20409;-74
2023/04/10 01:42:49;;;;;;;15.32;7.10;;;19.80;53.50;;;;;;4915223;29;20392;-74
2023/04/10 01:45:20;;;;;;;16.58;7.45;;;19.80;53.80;;;;;;4898088;29;20024;-74
2023/04/10 01:47:49;;;;;;;11.70;7.18;;;19.80;53.20;;;;;;4913740;29;20040;-73
2023/04/10 01:50:18;;;;;;;18.17;6.82;;;19.80;53.20;;;;;;4913933;29;20389;-73
2023/04/10 01:52:46;;;;;;;11.77;6.65;;;19.80;53.40;;;;;;4897895;29;20035;-74
2023/04/10 01:55:22;;;;;;;15.60;6.68;;;19.80;53.20;;;;;;4898777;29;20043;-74
2023/04/10 01:57:53;;;;;;;17.23;7.22;;;19.70;53.60;;;;;;4910386;29;20227;-75
2023/04/10 02:00:21;;;;;;;16.88;7.07;;;19.80;53.60;;;;;;4913782;29;20032;-75
2023/04/10 02:02:47;;;;;;;13.18;7.00;;;19.80;54.10;;;;;;4914585;29;20047;-71
2023/04/10 02:05:15;;;;;;;13.80;7.53;;;19.80;54.10;;;;;;4898256;29;20036;-71
2023/04/10 02:08:04;;;;;;;15.07;7.53;;;19.80;54.30;;;;;;4912483;29;20032;-69
2023/04/10 02:10:41;;;;;;;11.82;6.93;;;19.80;54.00;;;;;;4927774;29;20083;-69
2023/04/10 02:13:11;;;;;;;11.80;6.60;;;19.70;53.90;;;;;;4916041;29;20536;-69
2023/04/10 02:15:41;;;;;;;15.55;7.35;;;19.70;53.80;;;;;;4915361;29;20048;-69
2023/04/10 02:18:08;;;;;;;15.10;7.00;;;19.70;53.80;;;;;;4899195;29;20396;-69
2023/04/10 02:20:35;;;;;;;15.30;6.82;;;19.70;53.70;;;;;;4915048;29;20020;-69
2023/04/10 02:23:02;;;;;;;15.27;7.32;;;19.70;53.70;;;;;;4916226;29;20032;-69
2023/04/10 02:25:32;;;;;;;12.23;6.53;;;19.70;53.70;;;;;;4916286;29;20032;-69
2023/04/10 02:28:03;;;;;;;12.90;6.72;;;19.70;53.70;;;;;;4914784;29;20036;-69
2023/04/10 02:30:32;;;;;;;11.43;6.90;;;19.70;53.60;;;;;;4915045;29;20044;-69
2023/04/10 02:32:58;;;;;;;14.43;6.78;;;19.70;54.10;;;;;;4899271;29;20035;-70
2023/04/10 02:35:25;;;;;;;14.40;7.20;;;19.60;53.50;;;;;;4914885;29;20513;-69
2023/04/10 02:37:51;;;;;;;13.55;6.80;;;19.60;53.70;;;;;;4899051;29;20032;-69
2023/04/10 02:40:17;;;;;;;12.77;7.30;;;19.60;53.40;;;;;;4899454;29;20032;-69
2023/04/10 02:42:54;;;;;;;14.80;7.22;;;19.60;53.40;;;;;;4914852;29;20039;-69
2023/04/10 02:45:20;;;;;;;12.20;6.80;;;19.60;53.40;;;;;;4914700;29;20052;-69
2023/04/10 02:47:46;;;;;;;15.05;6.55;;;19.60;53.30;;;;;;4898975;29;20042;-69
2023/04/10 02:50:12;;;;;;;14.80;6.22;;;19.50;53.20;;;;;;4898806;29;20036;-69
2023/04/10 02:52:42;;;;;;;12.32;5.68;;;19.60;53.30;;;;;;4898531;29;20404;-70
2023/04/10 02:55:08;;;;;;;15.05;6.88;;;19.60;53.60;;;;;;4898655;29;20032;-69
2023/04/10 02:57:36;;;;;;;15.73;7.18;;;19.60;54.00;;;;;;4914532;29;20060;-69
2023/04/10 03:00:04;;;;;;;13.80;6.72;;;19.60;53.80;;;;;;4914428;29;20035;-69
2023/04/10 03:02:45;;;;;;;13.13;6.75;;;19.60;53.80;;;;;;4898767;29;20047;-68
2023/04/10 03:05:15;;;;;;;14.85;7.22;;;19.60;53.80;;;;;;4914490;29;20020;-69
2023/04/10 03:07:41;;;;;;;11.40;6.72;;;19.60;53.70;;;;;;4898553;29;20122;-68
2023/04/10 03:10:08;;;;;;;11.93;6.28;;;19.60;53.60;;;;;;4898472;29;20459;-68
2023/04/10 03:12:34;;;;;;;12.07;6.78;;;19.60;53.60;;;;;;4914258;29;20035;-69
2023/04/10 03:15:00;;;;;;;11.90;6.82;;;19.60;54.10;;;;;;4914169;29;20028;-68
2023/04/10 03:17:25;;;;;;;16.15;7.05;;;19.60;53.50;;;;;;4898659;29;20032;-68
2023/04/10 03:19:52;;;;;;;14.57;6.80;;;19.60;53.40;;;;;;4898283;29;20043;-68
2023/04/10 03:22:18;;;;;;;12.52;6.47;;;19.60;53.40;;;;;;4914341;29;20024;-69
2023/04/10 03:24:44;;;;;;;12.00;6.72;;;19.60;53.40;;;;;;4898450;29;20126;-69
2023/04/10 03:27:11;;;;;;;12.50;6.85;;;19.60;53.30;;;;;;4914286;29;20028;-69
2023/04/10 03:29:37;;;;;;;11.75;7.32;;;19.60;53.40;;;;;;4913773;29;20036;-69
2023/04/10 03:32:04;;;;;;;11.23;6.80;;;19.60;53.30;;;;;;4914077;29;20039;-69
2023/04/10 03:34:30;;;;;;;12.98;6.93;;;19.60;53.30;;;;;;4898177;29;20040;-69
2023/04/10 03:36:55;;;;;;;13.43;6.93;;;19.50;53.30;;;;;;4914201;29;20404;-69
2023/04/10 03:39:22;;;;;;;14.00;7.55;;;19.50;53.20;;;;;;4913699;29;20035;-69
2023/04/10 03:41:48;;;;;;;13.50;7.07;;;19.60;53.30;;;;;;4913946;29;20039;-69
2023/04/10 03:44:14;;;;;;;12.23;7.20;;;19.60;53.20;;;;;;4915236;29;20036;-69
2023/04/10 03:46:40;;;;;;;12.52;7.10;;;19.50;53.20;;;;;;4882644;29;20040;-69
2023/04/10 03:49:06;;;;;;;11.93;7.07;;;19.60;53.20;;;;;;4913609;29;20039;-69
2023/04/10 03:51:33;;;;;;;11.82;6.93;;;19.60;53.30;;;;;;4913876;29;20036;-69
2023/04/10 03:53:59;;;;;;;12.05;6.50;;;19.50;53.10;;;;;;4915065;29;20381;-69
2023/04/10 03:56:25;;;;;;;12.07;6.88;;;19.50;53.10;;;;;;4913798;29;20051;-69
2023/04/10 03:58:51;;;;;;;11.88;6.75;;;19.60;53.20;;;;;;4914832;29;20145;-69
2023/04/10 04:01:19;;;;;;;12.60;6.80;;;19.50;53.00;;;;;;4913901;29;20051;-69
2023/04/10 04:04:06;;;;;;;12.95;7.28;;;19.60;53.00;;;;;;4913951;29;20043;-69
2023/04/10 04:06:52;;;;;;;12.90;6.57;;;19.50;52.90;;;;;;4885459;29;20172;-69
2023/04/10 04:09:44;;;;;;;10.65;6.22;;;19.60;53.00;;;;;;4911771;29;20048;-69
2023/04/10 04:12:37;;;;;;;12.20;6.82;;;19.60;53.00;;;;;;4913663;29;20047;-69
2023/04/10 04:15:22;;;;;;;12.15;6.88;;;19.50;52.90;;;;;;4914127;29;20068;-69
2023/04/10 04:18:17;;;;;;;9.75;6.70;;;19.60;53.00;;;;;;4862992;29;20136;-69
2023/04/10 04:20:51;;;;;;;12.68;7.10;;;19.60;53.00;;;;;;4915936;29;20072;-69
2023/04/10 04:23:40;;;;;;;12.23;6.75;;;19.60;53.00;;;;;;4910582;29;20103;-69
2023/04/10 04:26:25;;;;;;;13.25;7.45;;;19.50;52.90;;;;;;4917287;29;20047;-69
2023/04/10 04:29:09;;;;;;;11.98;6.88;;;19.60;52.90;;;;;;4918206;29;20361;-69
2023/04/10 04:32:01;;;;;;;11.57;6.97;;;19.60;53.00;;;;;;4917146;29;20038;-69
2023/04/10 04:34:39;;;;;;;10.82;6.55;;;19.50;52.90;;;;;;4917018;29;20032;-69
2023/04/10 04:37:25;;;;;;;10.82;7.03;;;19.60;53.00;;;;;;4888490;29;20043;-69
2023/04/10 04:40:20;;;;;;;10.60;7.00;;;19.60;52.90;;;;;;4866267;29;20050;-69
2023/04/10 04:43:00;;;;;;;;;;;19.60;52.80;;;;;;4917279;29;20388;-69
2023/04/10 04:46:04;;;;;;;12.77;6.95;;;19.60;52.80;;;;;;4901109;29;20319;-69
2023/04/10 04:48:49;;;;;;;12.60;7.30;;;19.60;52.80;;;;;;4916772;29;20040;-69
2023/04/10 04:51:44;;;;;;;11.30;6.85;;;19.60;52.80;;;;;;4914064;29;20067;-69
2023/04/10 04:54:28;;;;;;;10.95;6.50;;;19.50;52.80;;;;;;4916735;29;20032;-69
2023/04/10 04:57:13;;;;;;;13.00;6.93;;;19.60;52.80;;;;;;4916690;29;20039;-69
2023/04/10 05:00:02;;;;;;;10.25;6.55;;;19.60;52.70;;;;;;4914597;29;20042;-69
2023/04/10 05:02:54;;;;;;;10.68;7.00;;;19.60;52.70;;;;;;4916606;29;20040;-69
2023/04/10 05:05:41;;;;;;;14.02;7.05;;;19.60;52.80;;;;;;4916619;29;20488;-69
2023/04/10 05:08:30;;;;;;;13.32;7.60;;;19.60;52.80;;;;;;4917461;29;20084;-69
2023/04/10 05:11:03;;;;;;;12.07;6.78;;;19.60;52.70;;;;;;4901770;29;20476;-69
2023/04/10 05:13:35;;;;;;;11.85;7.10;;;19.60;52.70;;;;;;4917732;29;20396;-69
2023/04/10 05:16:24;;;;;;;11.33;6.87;;;19.60;52.70;;;;;;4890465;29;20401;-69
2023/04/10 05:18:56;;;;;;;11.95;6.93;;;19.60;52.60;;;;;;4916141;29;20032;-69
2023/04/10 05:21:40;;;;;;;12.65;6.80;;;19.60;52.70;;;;;;4917351;29;20051;-69
2023/04/10 05:24:21;;;;;;;12.32;7.60;;;19.60;52.80;;;;;;4917516;29;20032;-69
2023/04/10 05:27:07;;;;;;;12.73;7.65;;;19.60;52.60;;;;;;4887732;29;20040;-69
2023/04/10 05:29:51;;;;;;;10.65;6.88;;;19.60;52.60;;;;;;4917046;29;20040;-69
2023/04/10 05:32:36;;;;;;;11.10;7.38;;;19.60;53.20;;;;;;4915922;29;20032;-69
2023/04/10 05:35:20;;;;;;;12.82;7.07;;;19.60;52.70;;;;;;4917213;29;20039;-69
2023/04/10 05:37:54;;;;;;;13.00;7.45;;;19.60;52.70;;;;;;4915801;29;20033;-69
2023/04/10 05:40:37;;;;;;;15.48;7.57;;;19.60;52.60;;;;;;4917190;29;20048;-69
2023/04/10 05:43:21;;;;;;;11.88;7.20;;;19.60;52.60;;;;;;4916034;29;20031;-70
2023/04/10 05:46:10;;;;;;;13.98;7.28;;;19.60;52.50;;;;;;4890038;29;20505;-69
2023/04/10 05:48:46;;;;;;;13.98;7.97;;;19.60;52.60;;;;;;4899897;29;20032;-69
2023/04/10 05:51:20;;;;;;;11.27;7.15;;;19.60;52.60;;;;;;4915827;29;20032;-69
2023/04/10 05:54:15;;;;;;;12.13;6.90;;;19.60;52.60;;;;;;4904946;29;20489;-69
2023/04/10 05:57:00;;;;;;;12.60;7.57;;;19.60;52.70;;;;;;4916877;29;20032;-69
2023/04/10 05:59:59;;;;;;;13.25;7.85;;;19.60;52.60;;;;;;4911802;29;20481;-69
2023/04/10 06:02:40;;;;;;;12.30;7.65;;;19.60;52.50;;;;;;4916705;29;20103;-69
2023/04/10 06:05:10;;;;;;;13.68;7.68;;;19.70;52.60;;;;;;4915724;29;20043;-68
2023/04/10 06:07:37;;;;;;;13.13;8.02;;;19.60;52.50;;;;;;4915288;29;20028;-68
2023/04/10 06:10:04;;;;;;;12.05;7.60;;;19.70;52.50;;;;;;4915113;29;20167;-69
2023/04/10 06:12:34;;;;;;;12.20;7.80;;;19.70;52.60;;;;;;4900275;29;20115;-69
2023/04/10 06:15:01;;;;;;;12.70;7.70;;;19.70;52.60;;;;;;4915224;29;20076;-69
2023/04/10 06:17:29;;;;;;;13.25;7.80;;;19.70;52.50;;;;;;4915215;29;20036;-69
2023/04/10 06:19:55;;;;;;;14.43;8.05;;;19.70;52.60;;;;;;4914928;29;20503;-69
2023/04/10 06:22:21;;;;;;;14.48;8.25;;;19.60;52.50;;;;;;4916246;29;20366;-69
2023/04/10 06:24:47;;;;;;;15.30;8.55;;;19.70;52.70;;;;;;4915069;29;20054;-69
2023/04/10 06:27:13;;;;;;;14.65;8.00;;;19.70;52.70;;;;;;4915023;29;20072;-69
2023/04/10 06:29:39;;;;;;;15.40;8.65;;;19.70;52.70;;;;;;4914941;29;20062;-68
2023/04/10 06:32:05;;;;;;;13.05;8.07;;;19.60;52.60;;;;;;4915172;29;20424;-69
2023/04/10 06:34:35;;;;;;;13.88;8.20;;;19.70;52.70;;;;;;4915266;29;20043;-69
2023/04/10 06:37:04;;;;;;;12.45;8.18;;;19.60;52.60;;;;;;4899258;29;20528;-69
2023/04/10 06:39:31;;;;;;;12.85;7.65;;;19.70;52.70;;;;;;4883512;29;20111;-69
2023/04/10 06:41:57;;;;;;;14.80;8.85;;;19.70;52.70;;;;;;4899099;29;20592;-69
2023/04/10 06:44:52;;;;;;;14.18;8.52;;;19.70;52.80;;;;;;4899078;29;20040;-69
2023/04/10 06:47:17;;;;;;;13.88;8.45;;;19.70;52.80;;;;;;4916300;29;20091;-69
2023/04/10 06:49:43;;;;;;;14.18;8.32;;;19.70;52.70;;;;;;4915497;29;20104;-69
2023/04/10 06:52:10;;;;;;;13.00;8.38;;;19.70;52.70;;;;;;4915821;29;20025;-68
2023/04/10 06:54:35;;;;;;;13.43;7.75;;;19.70;52.70;;;;;;4927726;23;20507;-72
2023/04/10 06:57:02;;;;;;;14.98;8.15;;;19.70;52.80;;;;;;4896874;29;20040;-71
2023/04/10 06:59:28;;;;;;;15.77;9.38;;;19.70;52.70;;;;;;4896518;29;20029;-72
2023/04/10 07:01:54;;;;;;;14.40;8.95;;;19.70;52.80;;;;;;4895607;29;20029;-73
2023/04/10 07:04:20;;;;;;;15.85;9.15;;;19.70;52.70;;;;;;4896598;29;20033;-72
2023/04/10 07:06:45;;;;;;;14.68;8.55;;;19.70;52.80;;;;;;4895496;29;20036;-72
2023/04/10 07:09:11;;;;;;;15.40;8.73;;;19.70;52.80;;;;;;4896313;29;20080;-72
2023/04/10 07:11:37;;;;;;;15.02;9.32;;;19.70;52.60;;;;;;4896707;29;20029;-72
2023/04/10 07:14:02;;;;;;;16.05;9.10;;;19.70;52.80;;;;;;4896349;29;20043;-72
2023/04/10 07:16:28;;;;;;;13.88;8.65;;;19.70;52.60;;;;;;4896647;29;20024;-72
2023/04/10 07:18:54;;;;;;;13.90;8.95;;;19.70;52.80;;;;;;4879535;29;20025;-72
2023/04/10 07:21:20;;;;;;;15.25;8.80;;;19.70;52.70;;;;;;4895493;29;20047;-72
2023/04/10 07:23:46;;;;;;;16.35;8.77;;;19.70;52.80;;;;;;4896382;29;20024;-71
2023/04/10 07:26:12;;;;;;;14.13;8.77;;;19.70;52.80;;;;;;4895312;29;20112;-72
2023/04/10 07:28:38;;;;;;;15.82;9.75;;;19.70;52.80;;;;;;4894885;29;20032;-72
2023/04/10 07:31:04;;;;;;;14.27;8.93;;;19.70;52.80;;;;;;4879759;29;20063;-71
2023/04/10 07:33:30;;;;;;;14.90;9.10;;;19.70;52.90;;;;;;4896258;29;20139;-71
2023/04/10 07:35:56;;;;;;;13.40;9.20;;;19.70;52.90;;;;;;4896407;29;20056;-72
2023/04/10 07:38:23;;;;;;;13.98;9.52;;;19.70;52.90;;;;;;4896233;29;20052;-71
2023/04/10 07:40:54;;;;;;;14.65;9.18;;;19.70;52.90;;;;;;4896325;29;20101;-72
2023/04/10 07:43:20;;;;;;;17.23;10.02;;;19.70;53.40;;;;;;4896285;29;20035;-72
2023/04/10 07:45:46;;;;;;;14.63;9.50;;;19.70;52.90;;;;;;4894900;29;20032;-71
2023/04/10 07:48:12;;;;;;;14.65;9.40;;;19.70;52.80;;;;;;4894786;29;20472;-72
2023/04/10 07:50:37;;;;;;;15.05;9.98;;;19.80;52.90;;;;;;4896318;29;20037;-72
2023/04/10 07:53:06;;;;;;;14.68;9.35;;;19.70;52.80;;;;;;4894929;29;20040;-72
2023/04/10 07:55:43;;;;;;;16.33;10.23;;;19.70;52.90;;;;;;4898057;29;20081;-71
2023/04/10 07:58:09;;;;;;;14.88;9.20;;;19.70;52.90;;;;;;4899644;29;20035;-71
2023/04/10 08:00:35;;;;;;;15.75;10.05;;;19.80;52.90;;;;;;4900758;29;20028;-72
2023/04/10 08:03:03;;;;;;;13.88;9.43;;;19.80;52.80;;;;;;4899977;29;20021;-72
2023/04/10 08:05:29;;;;;;;14.30;9.52;;;19.80;52.90;;;;;;4899941;29;20028;-72
2023/04/10 08:07:58;;;;;;;15.27;9.88;;;19.80;52.80;;;;;;4899648;29;20543;-72
2023/04/10 08:10:24;;;;;;;15.65;9.82;;;19.80;52.70;;;;;;4899779;29;20031;-72
2023/04/10 08:12:49;;;;;;;14.98;9.70;;;19.80;52.90;;;;;;4899630;29;20024;-72
2023/04/10 08:15:17;;;;;;;16.10;9.85;;;19.80;52.90;;;;;;4899766;29;20033;-72
2023/04/10 08:17:43;;;;;;;15.18;9.27;;;19.90;52.90;;;;;;4899694;29;20054;-71
2023/04/10 08:20:10;;;;;;;15.57;10.00;;;19.90;53.00;;;;;;4899389;29;20036;-71
2023/04/10 08:22:36;;;;;;;15.13;9.63;;;19.80;52.80;;;;;;4899795;29;20028;-71
2023/04/10 08:25:03;;;;;;;18.90;9.50;;;19.90;52.80;;;;;;4899460;29;20044;-72
2023/04/10 08:27:29;;;;;;;14.93;9.55;;;19.90;53.10;;;;;;4899583;29;20036;-72
2023/04/10 08:29:55;;;;;;;15.30;9.98;;;19.90;53.00;;;;;;4899358;29;20382;-72
2023/04/10 08:32:21;;;;;;;14.25;9.50;;;19.90;53.00;;;;;;4899500;29;20028;-72
2023/04/10 08:34:48;;;;;;;15.02;9.65;;;19.90;53.00;;;;;;4899451;29;20037;-72
2023/04/10 08:37:14;;;;;;;14.73;9.82;;;19.90;53.00;;;;;;4898217;29;20031;-72
2023/04/10 08:39:40;;;;;;;15.50;10.18;;;19.90;53.00;;;;;;4899021;29;20032;-72
2023/04/10 08:42:06;;;;;;;14.85;9.63;;;19.90;53.00;;;;;;4899528;29;20112;-71
2023/04/10 08:44:34;;;;;;;16.67;10.27;;;19.90;52.90;;;;;;4897991;29;20123;-73
2023/04/10 08:47:01;;;;;;;14.70;9.13;;;19.90;53.00;;;;;;4899272;29;20106;-73
2023/04/10 08:49:30;;;;;;;14.93;9.82;;;19.90;53.00;;;;;;4897799;29;20564;-73
2023/04/10 08:51:58;;;;;;;16.52;10.02;;;19.90;53.00;;;;;;4899234;29;20097;-74
2023/04/10 08:54:33;;;;;;;16.30;9.85;;;19.90;53.10;;;;;;4898788;29;20484;-72
2023/04/10 08:57:00;;;;;;;18.15;9.48;;;19.90;53.20;;;;;;4897621;29;20081;-72
2023/04/10 08:59:30;;;;;;;17.27;9.95;;;19.90;53.40;;;;;;4897279;29;20024;-72
2023/04/10 09:01:56;;;;;;;15.38;10.13;;;20.00;53.30;;;;;;4899027;29;20489;-73
2023/04/10 09:04:23;;;;;;;15.88;9.23;;;19.90;53.40;;;;;;4898961;29;20038;-73
2023/04/10 09:06:49;;;;;;;16.63;10.30;;;19.90;53.00;;;;;;4898319;29;20509;-74
2023/04/10 09:09:15;;;;;;;15.85;11.00;;;20.00;53.50;;;;;;4898612;29;20036;-74
2023/04/10 09:12:03;;;;;;;30.42;19.35;;;20.00;53.70;;;;;;4898688;29;20033;-74
2023/04/10 09:14:31;;;;;;;28.65;19.50;;;19.90;50.80;;;;;;4897496;29;20482;-74
2023/04/10 09:17:16;;;;;;;24.88;18.63;;;19.90;49.80;;;;;;4898759;29;20025;-75
2023/04/10 09:19:55;;;;;;;26.92;17.83;;;19.80;49.30;;;;;;4897527;29;20115;-75
2023/04/10 09:22:33;;;;;;;26.05;18.83;;;19.80;50.50;;;;;;4900674;29;20024;-72
2023/04/10 09:25:00;;;;;;;22.73;15.93;;;19.80;49.70;;;;;;4897293;29;20063;-74
2023/04/10 09:27:37;;;;;;;25.48;16.63;;;19.90;50.20;;;;;;4898552;29;20123;-75
2023/04/10 09:30:04;;;;;;;23.75;15.85;;;19.90;50.50;;;;;;4897012;29;20037;-74
2023/04/10 09:32:41;;;;;;;22.90;16.40;;;19.90;50.50;;;;;;4900238;29;20039;-72
2023/04/10 09:35:09;;;;;;;25.92;16.65;;;19.90;50.60;;;;;;4898671;29;20088;-73
2023/04/10 09:37:35;;;;;;;26.42;16.33;;;20.00;51.80;;;;;;4898413;29;20032;-73
2023/04/10 09:40:02;;;;;;;27.10;16.38;;;20.00;50.70;;;;;;4898000;29;20038;-73
2023/04/10 09:42:32;;;;;;;37.20;15.77;;;20.10;52.40;;;;;;4896971;29;20056;-73
2023/04/10 09:45:00;;;;;;;34.25;14.27;;;20.10;53.10;;;;;;4898618;29;20029;-73
2023/04/10 09:47:27;;;;;;;24.95;13.10;;;20.10;52.10;;;;;;4897143;29;20104;-73
2023/04/10 09:49:54;;;;;;;25.20;12.95;;;20.10;50.10;;;;;;4865906;29;20127;-74
2023/04/10 09:52:26;;;;;;;21.80;11.50;;;20.20;50.30;;;;;;4896912;29;20039;-75
2023/04/10 09:54:57;;;;;;;18.65;11.20;;;20.20;50.50;;;;;;4897771;29;20288;-74
2023/04/10 09:57:29;;;;;;;21.85;10.82;;;20.20;50.90;;;;;;4881229;29;20032;-75
2023/04/10 09:59:59;;;;;;;17.25;9.80;;;20.20;50.70;;;;;;4897686;29;20454;-79
2023/04/10 10:02:28;;;;;;;16.55;10.25;;;20.20;49.30;;;;;;4881559;29;20032;-75
2023/04/10 10:04:55;;;;;;;16.55;10.23;;;20.20;50.80;;;;;;4897709;29;20404;-75
2023/04/10 10:07:22;;;;;;;19.27;9.88;;;20.20;50.90;;;;;;4880994;29;20181;-74
2023/04/10 10:09:50;;;;;;;19.95;10.10;;;20.20;51.20;;;;;;4897393;29;20507;-75
2023/04/10 10:12:23;;;;;;;18.77;9.57;;;20.20;50.70;;;;;;4896525;29;20036;-75
2023/04/10 10:15:07;;;;;;;18.45;9.82;;;20.20;50.80;;;;;;4897663;29;20036;-75
2023/04/10 10:18:17;;;;;;;20.13;10.02;;;20.30;51.20;;;;;;4895623;29;20028;-75
2023/04/10 10:20:44;;;;;;;22.83;10.27;;;20.20;51.00;;;;;;4838325;29;20052;-75
2023/04/10 10:23:11;;;;;;;24.58;10.02;;;20.20;51.20;;;;;;4896643;29;20033;-75
2023/04/10 10:25:38;;;;;;;16.98;9.57;;;20.20;51.80;;;;;;4897372;29;20032;-74
2023/04/10 10:28:04;;;;;;;19.45;9.80;;;20.20;49.70;;;;;;4865094;29;20435;-75
2023/04/10 10:30:33;;;;;;;18.67;8.80;;;20.20;49.90;;;;;;4896376;29;20504;-75
2023/04/10 10:33:04;;;;;;;17.55;8.98;;;20.20;50.30;;;;;;4897388;29;20048;-75
2023/04/10 10:35:31;;;;;;;18.90;9.00;;;20.30;50.80;;;;;;4880609;29;20071;-74
2023/04/10 10:38:01;;;;;;;16.50;7.85;;;20.30;50.70;;;;;;4897128;29;20494;-74
2023/04/10 10:40:56;;;;;;;16.13;8.35;;;20.30;51.20;;;;;;4897223;29;20029;-74
2023/04/10 10:43:58;;;;;;;18.00;9.05;;;20.30;51.10;;;;;;4897173;29;20097;-74
2023/04/10 10:46:42;;;;;;;20.15;9.65;;;20.30;53.20;;;;;;4896291;29;20032;-73
2023/04/10 10:49:08;;;;;;;29.60;10.73;;;20.20;52.40;;;;;;4895502;29;20037;-73
2023/04/10 10:51:45;;;;;;;60.10;10.68;;;20.20;52.80;;;;;;4896914;29;20035;-75
2023/04/10 10:54:32;;;;;;;90.53;16.73;;;20.20;52.90;;;;;;4896746;29;20024;-74
2023/04/10 10:56:59;;;;;;;80.38;18.15;;;20.30;51.90;;;;;;4897037;29;20039;-74
2023/04/10 10:59:43;;;;;;;88.75;20.48;;;20.20;51.20;;;;;;4895437;29;20028;-74
2023/04/10 11:02:18;;;;;;;47.58;13.85;;;20.40;52.30;;;;;;4895562;29;20029;-74
2023/04/10 11:04:45;;;;;;;37.97;13.20;;;20.50;52.00;;;;;;4896971;29;20119;-74
2023/04/10 11:07:12;;;;;;;33.03;12.20;;;20.40;51.40;;;;;;4896030;29;20044;-75
2023/04/10 11:09:55;;;;;;;38.92;12.95;;;20.40;50.70;;;;;;4896553;29;20028;-74
2023/04/10 11:12:23;;;;;;;34.50;11.30;;;20.40;51.70;;;;;;4895771;29;20043;-74
2023/04/10 11:15:03;;;;;;;30.70;11.23;;;20.40;52.00;;;;;;4896676;29;20084;-74
2023/04/10 11:18:10;;;;;;;19.60;9.55;;;20.30;52.20;;;;;;4896645;29;20028;-74
2023/04/10 11:21:07;;;;;;;17.92;8.95;;;20.40;49.70;;;;;;4866351;29;20481;-76
2023/04/10 11:23:33;;;;;;;19.58;8.68;;;20.00;47.40;;;;;;4896679;29;20053;-75
2023/04/10 11:25:59;;;;;;;20.15;8.52;;;20.00;49.00;;;;;;4896578;29;20028;-74
2023/04/10 11:28:31;;;;;;;20.70;8.73;;;20.10;49.40;;;;;;4891810;29;20045;-71
2023/04/10 11:31:14;;;;;;;18.65;8.00;;;20.10;48.90;;;;;;4894715;29;20553;-72
2023/04/10 11:33:40;;;;;;;17.05;8.02;;;20.20;49.20;;;;;;4894348;29;20036;-73
2023/04/10 11:36:06;;;;;;;13.57;7.43;;;20.20;49.40;;;;;;4894586;29;20622;-72
2023/04/10 11:38:33;;;;;;;15.85;7.90;;;20.20;48.90;;;;;;4893333;29;20493;-73
2023/04/10 11:41:03;;;;;;;15.52;7.15;;;20.20;49.70;;;;;;4892916;29;20081;-73
2023/04/10 11:43:30;;;;;;;16.38;8.63;;;20.30;49.10;;;;;;4894531;29;20056;-73
2023/04/10 11:46:04;;;;;;;13.77;7.15;;;20.30;49.10;;;;;;4893391;29;20128;-72
2023/04/10 11:48:31;;;;;;;14.63;7.20;;;20.30;49.70;;;;;;4894020;29;20029;-79
2023/04/10 11:50:57;;;;;;;16.50;8.43;;;20.30;49.80;;;;;;4893523;29;20047;-81
2023/04/10 11:53:23;;;;;;;17.67;9.57;;;20.10;46.60;;;;;;4893434;29;20044;-80
2023/04/10 11:55:49;;;;;;;15.32;8.90;;;19.90;47.10;;;;;;4893540;29;20067;-79
2023/04/10 11:58:26;;;;;;;18.80;9.55;;;19.80;47.80;;;;;;4893972;29;20462;-80
2023/04/10 12:01:03;;;;;;;15.98;9.50;;;19.30;48.40;;;;;;4893537;29;20044;-83
2023/04/10 12:03:37;;;;;;;14.10;9.13;;;19.50;48.10;;;;;;4893158;29;20397;-82
2023/04/10 12:06:10;;;;;;;21.52;11.20;;;19.60;47.80;;;;;;4893021;29;20120;-81
2023/04/10 12:08:46;;;;;;;19.52;10.45;;;19.40;45.90;;;;;;4891067;29;20029;-72
2023/04/10 12:11:13;;;;;;;16.65;9.38;;;19.50;46.90;;;;;;4894395;29;20584;-72
2023/04/10 12:13:39;;;;;;;15.75;8.77;;;19.60;47.20;;;;;;4892523;29;20088;-73
2023/04/10 12:16:09;;;;;;;16.65;9.25;;;19.70;47.10;;;;;;4892624;29;20049;-73
2023/04/10 12:18:36;;;;;;;17.70;8.98;;;19.80;47.30;;;;;;4892633;29;20602;-71
2023/04/10 12:21:06;;;;;;;18.23;8.68;;;19.90;47.40;;;;;;4894502;29;20059;-73
2023/04/10 12:23:35;;;;;;;15.25;8.80;;;20.00;47.50;;;;;;4892576;29;20549;-72
2023/04/10 12:26:15;;;;;;;14.30;8.15;;;20.10;47.60;;;;;;4894019;29;20119;-72
2023/04/10 12:29:09;;;;;;;14.73;8.25;;;20.10;47.70;;;;;;4893566;29;20037;-72
2023/04/10 12:31:35;;;;;;;15.20;7.97;;;20.20;48.20;;;;;;4889626;29;20041;-78
2023/04/10 12:34:05;;;;;;;21.13;8.52;;;20.20;48.70;;;;;;4892803;29;20491;-72
2023/04/10 12:36:33;;;;;;;15.40;7.72;;;20.20;48.60;;;;;;4892572;29;20454;-72
2023/04/10 12:39:01;;;;;;;13.95;7.70;;;20.20;48.70;;;;;;4891692;29;20063;-73
2023/04/10 12:41:32;;;;;;;14.10;8.10;;;20.20;48.90;;;;;;4876514;29;20048;-72
2023/04/10 12:44:11;;;;;;;17.83;8.38;;;20.20;48.50;;;;;;4894243;29;20390;-73
2023/04/10 12:46:38;;;;;;;17.15;7.43;;;20.20;48.80;;;;;;4895640;29;20537;-72
2023/04/10 12:49:13;;;;;;;16.42;7.35;;;20.20;48.80;;;;;;4895356;29;20115;-72
2023/04/10 12:51:48;;;;;;;12.48;6.82;;;20.20;48.90;;;;;;4898073;29;20028;-72
2023/04/10 12:54:30;;;;;;;19.00;7.20;;;20.20;49.00;;;;;;4913120;23;20198;-72
2023/04/10 12:56:57;;;;;;;15.18;7.85;;;20.20;49.20;;;;;;4908816;29;20032;-73
2023/04/10 12:59:23;;;;;;;11.45;6.80;;;20.20;49.30;;;;;;4917057;29;20043;-72
2023/04/10 13:01:49;;;;;;;13.60;7.28;;;20.20;49.40;;;;;;4916668;29;20032;-73
2023/04/10 13:04:15;;;;;;;13.07;7.28;;;20.20;49.50;;;;;;4917703;29;20430;-73